Station: EBSP - 19/08/2018 02:21Z (il y a 5 minutes)
EBSP 190220Z AUTO 18005KT CAVOK 12/09 Q1024
Vent du 180º - 5 kt
Visibilité > 10 km et plafond haut ou pas de nuages significatifs
Température: +12ºC - Point de rosée: +09ºC - QNH: 1024 hPa